createdAt,value
2023-04-16T00:03:54.227Z,9.02
2023-04-16T00:07:00.230Z,9.98
2023-04-16T00:10:05.628Z,8.38
2023-04-16T00:13:13.518Z,9.80
2023-04-16T00:16:19.278Z,10.02
2023-04-16T00:19:24.579Z,9.63
2023-04-16T00:22:29.923Z,9.20
2023-04-16T00:25:35.076Z,6.15
2023-04-16T00:28:43.159Z,9.57
2023-04-16T00:31:48.483Z,13.30
2023-04-16T00:34:53.944Z,10.02
2023-04-16T00:37:59.509Z,11.77
2023-04-16T00:41:05.048Z,6.05
2023-04-16T00:44:12.967Z,9.85
2023-04-16T00:47:19.394Z,8.45
2023-04-16T00:50:25.015Z,12.80
2023-04-16T00:53:30.816Z,9.05
2023-04-16T00:56:38.848Z,9.40
2023-04-16T00:59:47.086Z,24.75
2023-04-16T01:02:52.976Z,17.30
2023-04-16T01:05:58.881Z,12.90
2023-04-16T01:09:04.486Z,15.23
2023-04-16T01:12:09.884Z,9.60
2023-04-16T01:15:18.067Z,11.75
2023-04-16T01:18:23.809Z,10.32
2023-04-16T01:21:31.919Z,10.65
2023-04-16T01:24:37.263Z,8.57
2023-04-16T01:27:42.352Z,9.68
2023-04-16T01:30:47.538Z,12.48
2023-04-16T01:34:05.344Z,9.83
2023-04-16T01:37:14.116Z,11.30
2023-04-16T01:40:19.592Z,11.15
2023-04-16T01:43:25.273Z,10.57
2023-04-16T01:46:31.903Z,14.63
2023-04-16T01:49:37.644Z,10.95
2023-04-16T01:52:46.155Z,9.10
2023-04-16T01:55:52.064Z,13.73
2023-04-16T01:58:57.564Z,12.82
2023-04-16T02:02:07.773Z,13.45
2023-04-16T02:05:13.289Z,12.20
2023-04-16T02:08:21.322Z,10.35
2023-04-16T02:11:26.714Z,11.48
2023-04-16T02:14:33.372Z,10.85
2023-04-16T02:17:38.950Z,8.60
2023-04-16T02:20:50.438Z,9.52
2023-04-16T02:23:58.998Z,9.57
2023-04-16T02:27:07.638Z,7.50
2023-04-16T02:30:13.633Z,12.52
2023-04-16T02:33:20.605Z,11.55
2023-04-16T02:36:34.607Z,11.10
2023-04-16T02:39:43.521Z,11.30
2023-04-16T02:42:49.313Z,11.30
2023-04-16T02:45:54.855Z,17.02
2023-04-16T02:49:00.363Z,14.98
2023-04-16T02:52:06.165Z,13.93
2023-04-16T02:55:14.929Z,13.88
2023-04-16T02:58:20.444Z,10.27
2023-04-16T03:01:25.902Z,12.70
2023-04-16T03:04:31.334Z,14.30
2023-04-16T03:07:36.840Z,12.98
2023-04-16T03:10:44.609Z,11.85
2023-04-16T03:13:50.207Z,15.00
2023-04-16T03:16:55.470Z,13.80
2023-04-16T03:20:00.929Z,14.55
2023-04-16T03:23:07.905Z,10.63
2023-04-16T03:26:16.025Z,10.45
2023-04-16T03:29:21.431Z,13.57
2023-04-16T03:32:27.317Z,17.83
2023-04-16T03:35:33.716Z,16.48
2023-04-16T03:38:39.864Z,17.38
2023-04-16T03:41:48.862Z,14.50
2023-04-16T03:44:54.176Z,16.60
2023-04-16T03:48:01.060Z,15.93
2023-04-16T03:51:06.567Z,11.70
2023-04-16T03:54:12.666Z,16.13
2023-04-16T03:57:22.901Z,11.05
2023-04-16T04:00:28.533Z,16.25
2023-04-16T04:03:42.596Z,13.93
2023-04-16T04:06:48.646Z,16.38
2023-04-16T04:09:54.689Z,14.60
2023-04-16T04:13:02.872Z,13.52
2023-04-16T04:16:09.270Z,10.88
2023-04-16T04:19:14.798Z,14.93
2023-04-16T04:22:20.975Z,14.88
2023-04-16T04:25:26.469Z,18.67
2023-04-16T04:28:34.962Z,16.27
2023-04-16T04:31:40.189Z,12.27
2023-04-16T04:34:46.638Z,11.73
2023-04-16T04:37:52.159Z,10.18
2023-04-16T04:40:58.780Z,13.40
2023-04-16T04:44:08.966Z,11.25
2023-04-16T04:47:14.632Z,12.25
2023-04-16T04:50:19.995Z,14.95
2023-04-16T04:53:25.512Z,15.52
2023-04-16T04:56:30.844Z,10.77
2023-04-16T04:59:39.233Z,11.30
2023-04-16T05:02:44.944Z,14.38
2023-04-16T05:05:50.364Z,12.02
2023-04-16T05:08:55.966Z,12.05
2023-04-16T05:12:01.561Z,13.27
2023-04-16T05:15:10.151Z,14.88
2023-04-16T05:21:20.514Z,13.05
2023-04-16T05:24:25.997Z,11.23
2023-04-16T05:27:31.276Z,12.35
2023-04-16T05:30:39.340Z,11.63
2023-04-16T05:33:44.695Z,12.05
2023-04-16T05:36:50.129Z,13.85
2023-04-16T05:39:55.460Z,13.93
2023-04-16T05:43:00.933Z,12.80
2023-04-16T05:46:08.754Z,12.20
2023-04-16T05:49:14.111Z,12.52
2023-04-16T05:52:19.654Z,13.57
2023-04-16T05:55:25.756Z,10.05
2023-04-16T05:58:31.332Z,10.60
2023-04-16T06:01:39.554Z,10.93
2023-04-16T06:04:45.013Z,12.95
2023-04-16T06:07:50.696Z,14.73
2023-04-16T06:10:57.170Z,14.05
2023-04-16T06:14:02.292Z,12.85
2023-04-16T06:17:10.323Z,13.45
2023-04-16T06:20:16.225Z,12.15
2023-04-16T06:23:21.839Z,12.90
2023-04-16T06:26:27.633Z,12.60
2023-04-16T06:29:40.655Z,16.33
2023-04-16T06:32:49.725Z,15.25
2023-04-16T06:35:55.223Z,11.98
2023-04-16T06:39:00.452Z,13.15
2023-04-16T06:42:05.853Z,15.65
2023-04-16T06:45:12.247Z,13.90
2023-04-16T06:48:20.166Z,12.80
2023-04-16T06:51:26.806Z,14.27
2023-04-16T06:54:32.373Z,14.68
2023-04-16T06:57:37.916Z,10.75
2023-04-16T07:00:43.351Z,12.23
2023-04-16T07:03:52.078Z,12.52
2023-04-16T07:06:57.839Z,16.70
2023-04-16T07:10:03.287Z,13.38
2023-04-16T07:13:08.785Z,14.05
2023-04-16T07:16:14.271Z,10.05
2023-04-16T07:19:22.154Z,12.00
2023-04-16T07:22:27.940Z,12.18
2023-04-16T07:25:33.050Z,10.93
2023-04-16T07:28:38.456Z,14.82
2023-04-16T07:31:44.033Z,8.45
2023-04-16T07:34:51.854Z,13.10
2023-04-16T07:37:57.130Z,11.25
2023-04-16T07:41:02.343Z,10.77
2023-04-16T07:44:07.588Z,9.60
2023-04-16T07:47:12.792Z,9.27
2023-04-16T07:50:20.743Z,13.68
2023-04-16T07:53:26.412Z,10.60
2023-04-16T07:56:31.985Z,9.88
2023-04-16T07:59:37.407Z,6.65
2023-04-16T08:02:43.384Z,9.57
2023-04-16T08:05:51.658Z,9.70
2023-04-16T08:08:56.888Z,9.95
2023-04-16T08:12:03.422Z,8.20
2023-04-16T08:15:09.597Z,10.07
2023-04-16T08:18:16.078Z,7.38
2023-04-16T08:21:23.951Z,11.32
2023-04-16T08:24:29.519Z,11.32
2023-04-16T08:27:35.280Z,9.70
2023-04-16T08:30:40.730Z,7.15
2023-04-16T08:33:46.203Z,9.93
2023-04-16T08:36:54.120Z,6.78
2023-04-16T08:39:59.831Z,10.48
2023-04-16T08:43:06.098Z,9.75
2023-04-16T08:46:12.220Z,6.40
2023-04-16T08:49:19.898Z,10.40
2023-04-16T08:52:29.143Z,10.18
2023-04-16T08:55:39.042Z,8.23
2023-04-16T08:58:45.342Z,10.27
2023-04-16T09:01:52.794Z,9.98
2023-04-16T09:04:59.716Z,8.55
2023-04-16T09:08:08.123Z,7.25
2023-04-16T09:11:13.430Z,9.60
2023-04-16T09:14:18.946Z,8.52
2023-04-16T09:17:24.396Z,6.72
2023-04-16T09:20:30.326Z,12.15
2023-04-16T09:23:38.859Z,5.97
2023-04-16T09:26:45.040Z,7.97
2023-04-16T09:29:50.400Z,6.10
2023-04-16T09:32:57.012Z,9.68
2023-04-16T09:36:02.207Z,5.38
2023-04-16T09:39:10.368Z,7.25
2023-04-16T09:42:15.825Z,16.27
2023-04-16T09:45:21.369Z,9.13
2023-04-16T09:48:33.028Z,6.90
2023-04-16T09:51:40.645Z,8.85
2023-04-16T09:54:52.458Z,7.97
2023-04-16T09:58:02.166Z,8.02
2023-04-16T10:01:10.063Z,10.00
2023-04-16T10:04:16.312Z,7.65
2023-04-16T10:07:21.678Z,6.63
2023-04-16T10:10:29.776Z,8.55
2023-04-16T10:13:35.434Z,9.35
2023-04-16T10:16:42.215Z,6.35
2023-04-16T10:19:47.599Z,12.40
2023-04-16T10:22:53.360Z,7.15
2023-04-16T10:26:02.201Z,10.15
2023-04-16T10:29:08.731Z,8.63
2023-04-16T10:32:14.631Z,12.55
2023-04-16T10:35:22.639Z,7.30
2023-04-16T10:38:28.781Z,5.30
2023-04-16T10:41:38.293Z,6.57
2023-04-16T10:44:45.506Z,5.18
2023-04-16T10:47:51.355Z,12.93
2023-04-16T10:51:01.351Z,7.05
2023-04-16T10:54:07.633Z,8.30
2023-04-16T10:57:21.453Z,9.35
2023-04-16T11:00:26.909Z,5.82
2023-04-16T11:03:34.344Z,5.55
2023-04-16T11:06:40.843Z,15.52
2023-04-16T11:09:47.900Z,9.02
2023-04-16T11:12:57.245Z,7.50
2023-04-16T11:16:03.128Z,6.88
2023-04-16T11:19:09.111Z,7.28
2023-04-16T11:22:17.518Z,8.70
2023-04-16T11:28:39.930Z,5.53
2023-04-16T11:31:45.639Z,8.27
2023-04-16T11:34:50.840Z,9.93
2023-04-16T11:37:59.086Z,7.55
2023-04-16T11:41:04.374Z,6.45
2023-04-16T11:44:22.884Z,7.38
2023-04-16T11:47:28.436Z,5.65
2023-04-16T11:50:33.959Z,5.38
2023-04-16T11:53:39.753Z,8.27
2023-04-16T11:56:48.726Z,6.05
2023-04-16T12:00:02.585Z,7.72
2023-04-16T12:03:18.756Z,7.95
2023-04-16T12:06:24.700Z,7.22
2023-04-16T12:09:30.189Z,7.68
2023-04-16T12:12:36.155Z,8.55
2023-04-16T12:15:54.170Z,7.53
2023-04-16T12:19:04.332Z,6.55
2023-04-16T12:22:09.570Z,8.05
2023-04-16T12:25:15.968Z,10.68
2023-04-16T12:28:30.475Z,4.18
2023-04-16T12:31:47.523Z,5.95
2023-04-16T12:34:55.821Z,7.32
2023-04-16T12:38:01.298Z,8.25
2023-04-16T12:41:09.733Z,6.07
2023-04-16T12:44:15.937Z,5.30
2023-04-16T12:47:24.241Z,7.25
2023-04-16T12:50:29.779Z,6.35
2023-04-16T12:53:35.234Z,8.43
2023-04-16T12:56:41.019Z,7.45
2023-04-16T12:59:47.281Z,6.78
2023-04-16T13:02:55.643Z,9.10
2023-04-16T13:06:02.545Z,5.28
2023-04-16T13:09:08.394Z,7.43
2023-04-16T13:12:13.853Z,5.20
2023-04-16T13:15:19.292Z,8.85
2023-04-16T13:18:27.861Z,9.02
2023-04-16T13:21:33.449Z,8.98
2023-04-16T13:24:39.630Z,8.20
2023-04-16T13:27:44.856Z,5.32
2023-04-16T13:30:50.263Z,11.73
2023-04-16T13:33:58.276Z,7.45
2023-04-16T13:37:03.926Z,6.78
2023-04-16T13:40:10.058Z,5.82
2023-04-16T13:43:17.222Z,8.48
2023-04-16T13:46:22.575Z,5.85
2023-04-16T13:49:32.645Z,10.55
2023-04-16T13:52:39.746Z,8.35
2023-04-16T13:55:45.865Z,5.15
2023-04-16T13:58:52.498Z,5.38
2023-04-16T14:01:57.863Z,7.32
2023-04-16T14:05:07.096Z,8.38
2023-04-16T14:08:15.061Z,9.45
2023-04-16T14:11:20.895Z,8.60
2023-04-16T14:14:26.763Z,7.43
2023-04-16T14:17:32.395Z,11.43
2023-04-16T14:20:40.582Z,10.73
2023-04-16T14:23:45.707Z,7.38
2023-04-16T14:26:51.238Z,13.65
2023-04-16T14:29:56.588Z,12.82
2023-04-16T14:33:02.046Z,9.85
2023-04-16T14:36:10.324Z,18.77
2023-04-16T14:39:15.859Z,9.00
2023-04-16T14:42:21.232Z,6.65
2023-04-16T14:45:30.456Z,7.07
2023-04-16T14:48:36.042Z,7.15
2023-04-16T14:51:44.320Z,5.45
2023-04-16T14:57:54.671Z,6.43
2023-04-16T15:01:01.059Z,7.25
2023-04-16T15:04:06.423Z,7.88
2023-04-16T15:07:14.914Z,9.98
2023-04-16T15:13:25.113Z,6.78
2023-04-16T15:16:30.565Z,8.60
2023-04-16T15:19:35.872Z,4.95
2023-04-16T15:22:43.748Z,7.18
2023-04-16T15:25:49.212Z,6.97
2023-04-16T15:28:54.372Z,8.15
2023-04-16T15:31:59.850Z,10.75
2023-04-16T15:35:06.370Z,8.00
2023-04-16T15:38:14.934Z,8.25
2023-04-16T15:41:20.363Z,6.75
2023-04-16T15:44:25.759Z,11.30
2023-04-16T15:47:31.024Z,9.18
2023-04-16T15:50:36.896Z,9.23
2023-04-16T15:53:45.593Z,8.25
2023-04-16T15:56:51.076Z,9.38
2023-04-16T16:00:05.866Z,11.45
2023-04-16T16:03:12.746Z,11.07
2023-04-16T16:06:18.278Z,8.68
2023-04-16T16:09:28.898Z,8.88
2023-04-16T16:12:34.450Z,6.25
2023-04-16T16:15:39.861Z,8.00
2023-04-16T16:18:45.169Z,7.90
2023-04-16T16:21:50.718Z,8.30
2023-04-16T16:24:59.244Z,9.73
2023-04-16T16:28:06.521Z,8.05
2023-04-16T16:31:12.870Z,14.45
2023-04-16T16:34:21.351Z,15.90
2023-04-16T16:37:27.401Z,7.72
2023-04-16T16:40:35.326Z,6.93
2023-04-16T16:43:40.896Z,14.13
2023-04-16T16:46:46.269Z,11.40
2023-04-16T16:49:51.640Z,12.32
2023-04-16T16:52:56.951Z,12.20
2023-04-16T16:56:05.226Z,8.05
2023-04-16T17:02:17.159Z,9.93
2023-04-16T17:05:22.948Z,11.98
2023-04-16T17:08:29.476Z,7.20
2023-04-16T17:11:37.488Z,6.07
2023-04-16T17:14:43.431Z,12.10
2023-04-16T17:17:48.867Z,13.02
2023-04-16T17:20:54.105Z,8.38
2023-04-16T17:23:59.877Z,11.18
2023-04-16T17:27:07.936Z,12.73
2023-04-16T17:30:13.897Z,12.68
2023-04-16T17:33:19.838Z,11.25
2023-04-16T17:36:25.794Z,12.80
2023-04-16T17:39:31.654Z,12.82
2023-04-16T17:42:39.889Z,12.43
2023-04-16T17:45:45.404Z,10.40
2023-04-16T17:48:51.053Z,9.30
2023-04-16T17:51:57.781Z,11.52
2023-04-16T17:55:04.070Z,10.73
2023-04-16T17:58:12.284Z,15.45
2023-04-16T18:01:18.254Z,12.00
2023-04-16T18:04:23.889Z,14.23
2023-04-16T18:07:29.018Z,10.02
2023-04-16T18:10:34.243Z,14.65
2023-04-16T18:13:43.914Z,14.45
2023-04-16T18:16:50.013Z,13.13
2023-04-16T18:19:55.494Z,11.52
2023-04-16T18:23:00.899Z,8.65
2023-04-16T18:26:08.508Z,14.50
2023-04-16T18:32:23.021Z,15.10
2023-04-16T18:35:28.639Z,14.20
2023-04-16T18:38:34.801Z,15.82
2023-04-16T18:41:41.058Z,8.55
2023-04-16T18:44:46.717Z,11.88
2023-04-16T18:47:58.959Z,13.85
2023-04-16T18:51:04.269Z,13.10
2023-04-16T18:54:09.611Z,13.25
2023-04-16T18:57:14.771Z,14.18
2023-04-16T19:00:20.583Z,16.98
2023-04-16T19:03:30.064Z,13.73
2023-04-16T19:06:35.470Z,14.32
2023-04-16T19:09:40.572Z,13.43
2023-04-16T19:12:46.073Z,13.65
2023-04-16T19:15:51.316Z,13.98
2023-04-16T19:18:59.282Z,12.23
2023-04-16T19:22:04.560Z,16.70
2023-04-16T19:25:10.399Z,12.13
2023-04-16T19:28:15.467Z,13.68
2023-04-16T19:31:20.865Z,15.18
2023-04-16T19:34:28.882Z,22.65
2023-04-16T19:37:34.181Z,19.60
2023-04-16T19:40:40.500Z,15.48
2023-04-16T19:43:45.783Z,16.48
2023-04-16T19:46:51.588Z,23.45
2023-04-16T19:49:59.417Z,15.77
2023-04-16T19:53:04.869Z,24.27
2023-04-16T19:56:11.029Z,12.80
2023-04-16T19:59:16.756Z,17.55
2023-04-16T20:02:22.014Z,20.65
2023-04-16T20:05:30.958Z,17.30
2023-04-16T20:08:36.605Z,18.70
2023-04-16T20:11:41.973Z,21.27
2023-04-16T20:14:47.927Z,15.25
2023-04-16T20:17:53.669Z,16.52
2023-04-16T20:21:06.251Z,19.85
2023-04-16T20:24:11.988Z,17.77
2023-04-16T20:27:19.800Z,21.10
2023-04-16T20:30:29.515Z,18.15
2023-04-16T20:33:35.007Z,16.30
2023-04-16T20:36:42.877Z,18.38
2023-04-16T20:39:50.650Z,16.95
2023-04-16T20:42:56.808Z,19.20
2023-04-16T20:46:03.506Z,15.45
2023-04-16T20:49:09.833Z,19.80
2023-04-16T20:52:18.473Z,24.27
2023-04-16T20:58:29.033Z,24.15
2023-04-16T21:01:35.083Z,17.67
2023-04-16T21:04:40.869Z,17.30
2023-04-16T21:07:49.560Z,23.80
2023-04-16T21:10:55.019Z,20.55
2023-04-16T21:14:00.508Z,16.13
2023-04-16T21:17:05.720Z,18.27
2023-04-16T21:20:14.421Z,19.58
2023-04-16T21:26:28.053Z,17.23
2023-04-16T21:32:38.680Z,20.83
2023-04-16T21:35:44.387Z,17.92
2023-04-16T21:38:49.736Z,21.58
2023-04-16T21:41:58.066Z,19.45
2023-04-16T21:45:03.942Z,19.45
2023-04-16T21:48:09.879Z,19.05
2023-04-16T21:51:16.108Z,26.33
2023-04-16T21:54:21.386Z,23.75
2023-04-16T21:57:29.585Z,25.55
2023-04-16T22:00:35.200Z,27.15
2023-04-16T22:07:03.732Z,24.67
2023-04-16T22:10:10.018Z,20.48
2023-04-16T22:13:18.280Z,20.77
2023-04-16T22:16:23.765Z,22.52
2023-04-16T22:19:29.392Z,23.13
2023-04-16T22:26:06.080Z,23.35
2023-04-16T22:29:14.072Z,24.83
2023-04-16T22:32:19.462Z,25.37
2023-04-16T22:35:24.911Z,23.25
2023-04-16T22:38:30.348Z,25.38
2023-04-16T22:41:36.126Z,26.00
2023-04-16T22:44:45.033Z,22.88
2023-04-16T22:47:50.470Z,24.60
2023-04-16T22:50:55.855Z,21.67
2023-04-16T22:54:01.631Z,20.25
2023-04-16T22:57:07.270Z,22.52
2023-04-16T23:00:17.253Z,24.75
2023-04-16T23:03:22.542Z,25.27
2023-04-16T23:06:27.929Z,19.17
2023-04-16T23:09:33.746Z,25.00
2023-04-16T23:12:40.571Z,24.17
2023-04-16T23:15:48.483Z,18.58
2023-04-16T23:18:54.290Z,24.15
2023-04-16T23:21:59.666Z,24.20
2023-04-16T23:25:05.299Z,21.40
2023-04-16T23:28:10.615Z,24.60
2023-04-16T23:31:18.772Z,19.25
2023-04-16T23:34:24.280Z,18.05
2023-04-16T23:37:29.603Z,17.33
2023-04-16T23:40:34.951Z,20.48
2023-04-16T23:43:41.285Z,18.80
2023-04-16T23:46:49.164Z,18.65
2023-04-16T23:49:54.548Z,23.00
2023-04-16T23:52:59.950Z,20.60
2023-04-16T23:56:05.417Z,24.85
2023-04-16T23:59:12.059Z,16.58
